Spearman, Texas
Current Conditions -  °F | °C
As of 6:35 PM on Friday 21 Nov 2014 (Local Time) from KBPC Reporting Station
Clear Clear  
Wind Chill: 50°   Ceiling: Unl
Heat Index: 50°   Visibility: 10mi
Dew Point: 37°   Wind: 13mph
Humidity: 62%   Direction: 160°SSE
Pressure: 29.97"   Gusts: NA
Location:  36.2°N, 101.19°W
Report Text: KBPC 220035Z AUTO 16011KT 10SM CLR 10/03 A2997 RMK AO2
Loading
Personal Weather Stations






























Interactive Weather Map New forecast layout! Learn more

10-Day Weather Forecast

Advertisements
Track Severe Weather on mobile